createdAt,value
2019-03-13T00:03:25.974Z,79.62
2019-03-13T00:08:25.973Z,79.27
2019-03-13T00:13:25.025Z,78.99
2019-03-13T00:18:25.970Z,78.05
2019-03-13T00:23:27.134Z,77.75
2019-03-13T00:28:26.288Z,77.24
2019-03-13T00:33:25.290Z,76.90
2019-03-13T00:38:24.288Z,76.91
2019-03-13T00:43:23.179Z,76.43
2019-03-13T00:48:22.993Z,76.44
2019-03-13T00:53:22.945Z,76.35
2019-03-13T00:58:25.395Z,75.94
2019-03-13T01:03:23.020Z,76.32
2019-03-13T01:08:22.984Z,75.98
2019-03-13T01:13:22.962Z,76.51
2019-03-13T01:18:21.964Z,76.25
2019-03-13T01:23:21.994Z,76.44
2019-03-13T01:28:21.017Z,76.94
2019-03-13T01:33:20.306Z,77.25
2019-03-13T01:38:19.026Z,77.13
2019-03-13T01:43:17.991Z,77.09
2019-03-13T01:48:17.108Z,77.15
2019-03-13T01:53:18.097Z,76.54
2019-03-13T01:58:17.996Z,76.96
2019-03-13T02:03:18.044Z,77.25
2019-03-13T02:08:17.296Z,77.09
2019-03-13T02:13:18.116Z,77.22
2019-03-13T02:18:17.993Z,77.23
2019-03-13T02:23:16.994Z,77.47
2019-03-13T02:28:16.096Z,77.33
2019-03-13T02:33:16.183Z,77.39
2019-03-13T02:38:16.045Z,77.50
2019-03-13T02:43:16.098Z,76.93
2019-03-13T02:48:17.053Z,76.38
2019-03-13T02:53:16.231Z,76.43
2019-03-13T02:58:16.044Z,76.69
2019-03-13T03:03:15.999Z,76.12
2019-03-13T03:08:16.040Z,75.87
2019-03-13T03:13:15.021Z,75.39
2019-03-13T03:18:15.114Z,75.47
2019-03-13T03:23:14.991Z,74.85
2019-03-13T03:28:15.071Z,74.76
2019-03-13T03:33:14.040Z,74.84
2019-03-13T03:38:14.046Z,74.12
2019-03-13T03:43:14.196Z,74.22
2019-03-13T03:48:15.138Z,74.14
2019-03-13T03:53:15.054Z,73.57
2019-03-13T03:58:15.248Z,73.83
2019-03-13T04:03:14.010Z,73.66
2019-03-13T04:08:14.222Z,74.06
2019-03-13T04:13:14.224Z,73.56
2019-03-13T04:18:13.221Z,73.23
2019-03-13T04:23:13.148Z,73.15
2019-03-13T04:28:12.046Z,72.72
2019-03-13T04:33:12.071Z,72.83
2019-03-13T04:38:11.084Z,72.84
2019-03-13T04:43:10.154Z,72.32
2019-03-13T04:48:10.172Z,72.00
2019-03-13T04:53:11.156Z,71.92
2019-03-13T04:58:12.267Z,71.85
2019-03-13T05:03:11.141Z,72.15
2019-03-13T05:08:11.105Z,72.06
2019-03-13T05:13:10.238Z,72.27
2019-03-13T05:18:11.106Z,72.14
2019-03-13T05:23:11.203Z,71.79
2019-03-13T05:28:12.114Z,71.27
2019-03-13T05:33:12.077Z,71.17
2019-03-13T05:38:12.062Z,70.93
2019-03-13T05:43:12.125Z,70.95
2019-03-13T05:48:11.142Z,71.61
2019-03-13T05:53:11.093Z,70.70
2019-03-13T05:58:11.088Z,70.63
2019-03-13T06:03:10.138Z,70.78
2019-03-13T06:08:09.126Z,70.62
2019-03-13T06:13:08.765Z,70.51
2019-03-13T06:18:09.879Z,70.06
2019-03-13T06:23:09.123Z,70.30
2019-03-13T06:28:08.167Z,69.82
2019-03-13T06:33:08.101Z,70.23
2019-03-13T06:38:07.581Z,70.29
2019-03-13T06:43:07.140Z,70.53
2019-03-13T06:48:06.394Z,72.64
2019-03-13T06:53:06.142Z,72.81
2019-03-13T06:58:06.180Z,74.19
2019-03-13T07:03:05.233Z,74.15
2019-03-13T07:08:04.097Z,74.04
2019-03-13T07:13:03.187Z,74.38
2019-03-13T07:18:02.186Z,74.18
2019-03-13T07:23:02.135Z,76.38
2019-03-13T07:28:01.107Z,77.41
2019-03-13T07:33:01.300Z,77.31
2019-03-13T07:38:01.442Z,76.98
2019-03-13T07:43:02.162Z,77.58
2019-03-13T07:48:03.206Z,76.23
2019-03-13T07:53:02.295Z,76.28
2019-03-13T07:58:01.409Z,76.54
2019-03-13T08:03:02.127Z,77.39
2019-03-13T08:08:01.170Z,77.46
2019-03-13T08:13:01.171Z,77.00
2019-03-13T08:18:00.303Z,76.13
2019-03-13T08:23:01.144Z,76.26
2019-03-13T08:28:00.451Z,75.51
2019-03-13T08:33:01.230Z,75.09
2019-03-13T08:38:00.552Z,75.06
2019-03-13T08:43:01.183Z,74.92
2019-03-13T08:48:01.135Z,74.44
2019-03-13T08:53:00.199Z,74.54
2019-03-13T08:57:59.351Z,75.08
2019-03-13T09:02:59.468Z,76.04
2019-03-13T09:07:59.348Z,76.69
2019-03-13T09:13:01.751Z,77.22
2019-03-13T09:18:00.193Z,76.50
2019-03-13T09:23:00.450Z,75.85
2019-03-13T09:27:59.735Z,75.08
2019-03-13T09:32:59.225Z,75.00
2019-03-13T09:37:58.305Z,74.92
2019-03-13T09:42:58.267Z,75.79
2019-03-13T09:47:57.657Z,77.67
2019-03-13T09:52:57.421Z,79.54
2019-03-13T09:57:56.883Z,80.13
2019-03-13T10:07:57.330Z,81.93
2019-03-13T10:12:56.737Z,82.41
2019-03-13T10:17:56.467Z,82.71
2019-03-13T10:22:56.191Z,82.87
2019-03-13T10:27:56.386Z,82.66
2019-03-13T10:32:57.461Z,81.91
2019-03-13T10:37:57.268Z,81.28
2019-03-13T10:42:58.306Z,81.08
2019-03-13T10:47:58.303Z,81.25
2019-03-13T10:52:57.605Z,80.86
2019-03-13T10:57:57.439Z,79.72
2019-03-13T11:02:57.195Z,79.01
2019-03-13T11:07:58.434Z,79.49
2019-03-13T11:12:58.331Z,79.43
2019-03-13T11:17:58.314Z,79.03
2019-03-13T11:22:57.224Z,78.38
2019-03-13T11:27:58.448Z,78.72
2019-03-13T11:32:57.331Z,79.76
2019-03-13T11:37:56.414Z,78.81
2019-03-13T11:42:57.236Z,78.30
2019-03-13T11:47:58.457Z,78.31
2019-03-13T11:52:58.311Z,78.09
2019-03-13T11:57:57.368Z,77.72
2019-03-13T12:02:57.499Z,78.05
2019-03-13T12:07:57.251Z,77.54
2019-03-13T12:12:56.200Z,77.10
2019-03-13T12:17:55.279Z,76.54
2019-03-13T12:22:55.275Z,77.00
2019-03-13T12:27:55.364Z,77.49
2019-03-13T12:32:54.216Z,78.42
2019-03-13T12:37:54.509Z,79.42
2019-03-13T12:42:54.229Z,80.45
2019-03-13T12:47:53.568Z,82.18
2019-03-13T12:52:53.290Z,83.61
2019-03-13T12:57:52.423Z,83.26
2019-03-13T13:02:54.528Z,84.08
2019-03-13T13:07:50.250Z,84.24
2019-03-13T13:12:50.279Z,84.25
2019-03-13T13:17:50.434Z,85.11
2019-03-13T13:42:49.627Z,84.82
2019-03-13T13:47:48.462Z,85.58
2019-03-13T13:52:47.243Z,84.60
2019-03-13T13:57:46.364Z,84.44
2019-03-13T14:02:45.495Z,84.97
2019-03-13T14:07:45.358Z,85.16
2019-03-13T14:12:45.404Z,86.08
2019-03-13T14:17:44.517Z,85.81
2019-03-13T14:22:45.376Z,86.06
2019-03-13T14:27:44.272Z,86.64
2019-03-13T14:32:44.282Z,86.66
2019-03-13T14:37:44.312Z,87.28
2019-03-13T14:42:44.327Z,87.68
2019-03-13T14:47:43.371Z,87.79
2019-03-13T14:52:42.504Z,88.15
2019-03-13T15:02:43.576Z,89.23
2019-03-13T15:07:42.396Z,88.94
2019-03-13T15:12:43.046Z,89.06
2019-03-13T15:17:42.356Z,87.15
2019-03-13T15:22:41.395Z,87.60
2019-03-13T15:27:41.313Z,86.88
2019-03-13T15:32:42.365Z,86.63
2019-03-13T15:37:41.292Z,86.62
2019-03-13T15:42:41.661Z,87.28
2019-03-13T15:47:40.704Z,86.87
2019-03-13T15:52:39.566Z,86.93
2019-03-13T15:57:39.394Z,86.54
2019-03-13T16:02:39.372Z,86.12
2019-03-13T16:07:39.342Z,86.36
2019-03-13T16:12:38.736Z,86.48
2019-03-13T16:17:38.678Z,86.76
2019-03-13T16:22:38.835Z,86.91
2019-03-13T16:27:39.422Z,86.99
2019-03-13T16:32:43.889Z,86.67
2019-03-13T16:37:39.349Z,87.12
2019-03-13T16:42:38.661Z,87.75
2019-03-13T16:47:38.414Z,87.43
2019-03-13T16:52:38.381Z,87.75
2019-03-13T16:57:38.312Z,87.84
2019-03-13T17:02:37.715Z,88.11
2019-03-13T17:07:37.512Z,88.06
2019-03-13T17:12:37.393Z,88.13
2019-03-13T17:17:38.587Z,87.79
2019-03-13T17:22:38.366Z,87.80
2019-03-13T17:27:37.431Z,87.70
2019-03-13T17:32:37.340Z,87.49
2019-03-13T17:37:37.364Z,87.15
2019-03-13T17:42:36.359Z,87.35
2019-03-13T17:47:36.422Z,87.30
2019-03-13T17:52:36.341Z,87.24
2019-03-13T17:57:36.402Z,87.37
2019-03-13T18:02:36.464Z,87.78
2019-03-13T18:07:37.412Z,87.95
2019-03-13T18:12:37.502Z,87.89
2019-03-13T18:17:36.505Z,87.90
2019-03-13T18:22:36.460Z,88.11
2019-03-13T18:27:37.458Z,88.23
2019-03-13T18:32:41.605Z,88.29
2019-03-13T18:37:37.519Z,88.02
2019-03-13T18:42:37.408Z,88.43
2019-03-13T18:47:36.431Z,88.33
2019-03-13T18:52:35.409Z,87.91
2019-03-13T18:57:36.440Z,87.87
2019-03-13T19:02:35.503Z,87.89
2019-03-13T19:07:35.398Z,87.61
2019-03-13T19:12:35.442Z,87.87
2019-03-13T19:17:36.440Z,88.02
2019-03-13T19:22:36.471Z,88.55
2019-03-13T19:27:36.484Z,88.09
2019-03-13T19:32:35.454Z,87.40
2019-03-13T19:37:35.466Z,87.65
2019-03-13T19:42:36.928Z,88.10
2019-03-13T19:47:34.777Z,87.90
2019-03-13T19:52:33.581Z,87.69
2019-03-13T19:57:32.553Z,87.65
2019-03-13T20:02:31.516Z,87.21
2019-03-13T20:07:30.684Z,86.95
2019-03-13T20:12:30.690Z,86.78
2019-03-13T20:17:29.915Z,86.55
2019-03-13T20:22:30.516Z,86.34
2019-03-13T20:27:31.587Z,86.31
2019-03-13T20:32:31.533Z,85.78
2019-03-13T20:37:32.497Z,85.49
2019-03-13T20:47:31.755Z,84.73
2019-03-13T20:52:30.619Z,84.25
2019-03-13T20:57:31.532Z,84.51
2019-03-13T21:02:30.877Z,84.21
2019-03-13T21:07:30.564Z,83.86
2019-03-13T21:12:31.520Z,84.10
2019-03-13T21:17:31.660Z,83.90
2019-03-13T21:22:30.691Z,84.67
2019-03-13T21:27:29.761Z,84.85
2019-03-13T21:32:29.527Z,85.02
2019-03-13T21:37:30.498Z,85.09
2019-03-13T21:42:30.498Z,85.32
2019-03-13T21:47:29.543Z,85.52
2019-03-13T21:52:29.499Z,85.63
2019-03-13T21:57:30.469Z,85.84
2019-03-13T22:02:33.159Z,85.40
2019-03-13T22:07:29.339Z,85.58
2019-03-13T22:12:28.616Z,85.19
2019-03-13T22:17:28.342Z,84.94
2019-03-13T22:22:27.272Z,84.71
2019-03-13T22:27:27.332Z,84.77
2019-03-13T22:32:26.317Z,84.91
2019-03-13T22:37:26.446Z,84.55
2019-03-13T22:42:26.277Z,84.40
2019-03-13T22:47:27.287Z,84.42
2019-03-13T22:52:26.366Z,84.21
2019-03-13T22:57:26.255Z,84.06
2019-03-13T23:02:25.598Z,84.05
2019-03-13T23:07:25.290Z,83.70
2019-03-13T23:12:25.284Z,84.03
2019-03-13T23:17:25.294Z,84.07
2019-03-13T23:22:25.299Z,83.84
2019-03-13T23:27:25.340Z,83.97
2019-03-13T23:32:25.345Z,83.64
2019-03-13T23:37:25.317Z,83.89
2019-03-13T23:42:25.297Z,83.97
2019-03-13T23:47:24.295Z,84.05
2019-03-13T23:52:25.856Z,83.94
2019-03-13T23:57:23.593Z,83.83
